Time;durP1;ratioP1;P1;durP2;ratioP2;P2;SDS_P1;SDS_P2;PMS_P1;PMS_P2;Temp;Humidity;BMP_temperature;BMP_pressure;BME280_temperature;BME280_humidity;BME280_pressure;Samples;Min_cycle;Max_cycle;Signal;HPM_P1;HPM_P2
2021/11/18 00:01:14;;;;;;;9.45;5.45;;;;;;;23.19;22.54;98709.94;5030088;28;20087;-83
2021/11/18 00:03:41;;;;;;;12.68;6.65;;;;;;;22.88;23.06;98727.78;5030972;28;20041;-83
2021/11/18 00:06:07;;;;;;;9.07;5.22;;;;;;;23.31;22.46;98722.66;5028006;28;20029;-83
2021/11/18 00:08:34;;;;;;;8.55;5.00;;;;;;;23.59;22.10;98730.03;5025711;28;20035;-83
2021/11/18 00:11:04;;;;;;;10.00;5.68;;;;;;;23.68;22.03;98733.94;5031134;28;20064;-83
2021/11/18 00:13:37;;;;;;;7.78;4.50;;;;;;;23.76;21.77;98729.84;5024826;28;20034;-83
2021/11/18 00:16:04;;;;;;;8.30;4.75;;;;;;;23.36;22.46;98730.66;5025223;28;20069;-83
2021/11/18 00:18:33;;;;;;;9.13;5.00;;;;;;;23.21;22.51;98726.31;5028388;28;20051;-83
2021/11/18 00:21:15;;;;;;;6.05;4.03;;;;;;;23.46;22.13;98728.94;5031682;28;20559;-83
2021/11/18 00:23:46;;;;;;;7.97;4.90;;;;;;;23.31;22.36;98736.66;5027835;28;20037;-83
2021/11/18 00:26:12;;;;;;;9.32;5.57;;;;;;;23.03;22.84;98740.47;5030956;28;20037;-83
2021/11/18 00:28:39;;;;;;;7.00;4.60;;;;;;;23.29;22.54;98741.88;5031138;28;20040;-83
2021/11/18 00:31:07;;;;;;;7.18;4.57;;;;;;;23.02;22.81;98752.88;5026157;28;20084;-83
2021/11/18 00:33:35;;;;;;;7.30;4.47;;;;;;;22.94;23.02;98744.94;5031091;28;20029;-83
2021/11/18 00:36:01;;;;;;;7.88;4.75;;;;;;;23.28;22.66;98751.47;5032367;28;20041;-83
2021/11/18 00:38:27;;;;;;;7.82;4.70;;;;;;;23.11;22.70;98755.22;5034113;28;20491;-83
2021/11/18 00:40:55;;;;;;;9.00;5.40;;;;;;;23.36;22.47;98748.22;5034890;28;20044;-83
2021/11/18 00:43:23;;;;;;;9.65;4.82;;;;;;;23.65;22.35;98751.59;5033383;28;20041;-83
2021/11/18 00:45:50;;;;;;;9.75;5.65;;;;;;;22.92;22.93;98755.75;5034709;28;20056;-83
2021/11/18 00:48:16;;;;;;;8.93;5.18;;;;;;;22.98;22.71;98756.91;5034748;28;20025;-83
2021/11/18 00:50:46;;;;;;;7.30;4.43;;;;;;;22.81;23.13;98755.00;5027249;28;20103;-83
2021/11/18 00:53:13;;;;;;;7.75;4.43;;;;;;;23.53;22.37;98757.69;5027945;28;20072;-83
2021/11/18 00:55:39;;;;;;;9.45;6.25;;;;;;;22.88;23.18;98757.75;5025995;28;20389;-83
2021/11/18 00:58:06;;;;;;;7.38;4.75;;;;;;;23.08;22.75;98765.22;5030263;28;20120;-83
2021/11/18 01:00:35;;;;;;;10.30;6.45;;;;;;;23.64;22.29;98754.81;5033295;28;20034;-83
2021/11/18 01:03:02;;;;;;;7.53;5.07;;;;;;;24.40;21.36;98766.41;5033865;28;20068;-83
2021/11/18 01:05:33;;;;;;;9.18;5.38;;;;;;;24.70;21.00;98776.84;5033902;28;20040;-83
2021/11/18 01:08:00;;;;;;;9.48;5.70;;;;;;;24.58;20.91;98780.22;5032535;28;20029;-83
2021/11/18 01:10:32;;;;;;;8.93;5.82;;;;;;;24.54;21.22;98769.06;5033572;28;20371;-83
2021/11/18 01:12:59;;;;;;;9.00;5.45;;;;;;;24.82;21.01;98776.31;5031265;28;20117;-83
2021/11/18 01:15:28;;;;;;;7.53;4.90;;;;;;;24.77;20.68;98768.38;5034423;28;20461;-83
2021/11/18 01:17:54;;;;;;;7.63;4.85;;;;;;;24.28;21.37;98763.34;5030749;28;20032;-83
2021/11/18 01:20:23;;;;;;;10.13;5.82;;;;;;;24.19;21.40;98768.69;5033351;28;20107;-83
2021/11/18 01:22:51;;;;;;;9.93;5.47;;;;;;;24.04;21.88;98770.81;5034726;28;20029;-83
2021/11/18 01:25:17;;;;;;;8.63;4.78;;;;;;;24.76;20.99;98772.41;5033829;28;20042;-83
2021/11/18 01:27:44;;;;;;;8.68;4.97;;;;;;;24.75;21.10;98767.97;5033950;28;20034;-83
2021/11/18 01:30:15;;;;;;;7.07;5.20;;;;;;;24.58;21.13;98774.59;5034024;28;20042;-83
2021/11/18 01:32:41;;;;;;;;;;;;;;;24.02;22.07;98767.63;5034072;28;20033;-83
2021/11/18 01:35:08;;;;;;;12.02;6.72;;;;;;;24.14;22.06;98772.75;5024148;28;19968;-83
2021/11/18 01:37:34;;;;;;;7.97;5.25;;;;;;;24.88;21.27;98766.19;5021881;28;20446;-83
2021/11/18 01:40:00;;;;;;;6.55;4.72;;;;;;;24.79;21.22;98773.56;5033913;28;20056;-83
2021/11/18 01:42:27;;;;;;;7.00;4.80;;;;;;;25.06;20.89;98763.94;5032981;28;20044;-83
2021/11/18 01:44:53;;;;;;;9.02;5.70;;;;;;;25.40;20.69;98763.78;5034273;28;20030;-83
2021/11/18 01:47:20;;;;;;;9.13;5.65;;;;;;;25.76;20.40;98764.03;5031638;28;20037;-83
2021/11/18 01:49:48;;;;;;;7.45;5.00;;;;;;;26.27;19.64;98765.50;5031252;28;20099;-83
2021/11/18 01:52:20;;;;;;;7.60;4.93;;;;;;;26.07;19.95;98766.22;5033110;28;20032;-83
2021/11/18 01:54:46;;;;;;;6.07;4.78;;;;;;;25.84;19.90;98757.81;5034225;28;20041;-83
2021/11/18 01:57:18;;;;;;;9.45;5.63;;;;;;;25.95;19.77;98768.91;5033615;28;20515;-83
2021/11/18 01:59:46;;;;;;;7.97;5.07;;;;;;;26.19;19.69;98767.63;5022837;28;20048;-83
2021/11/18 02:02:14;;;;;;;7.28;5.30;;;;;;;26.38;19.36;98766.06;5031981;28;20040;-83
2021/11/18 02:04:53;;;;;;;7.00;5.20;;;;;;;26.37;19.40;98765.25;5032096;28;20481;-83
2021/11/18 02:07:19;;;;;;;7.82;4.95;;;;;;;26.70;19.14;98750.06;5033664;28;20034;-83
2021/11/18 02:09:49;;;;;;;9.25;5.93;;;;;;;26.71;18.86;98734.75;5031668;28;20378;-83
2021/11/18 02:12:33;;;;;;;7.57;4.93;;;;;;;26.14;19.50;98737.19;5026837;28;20026;-83
2021/11/18 02:15:00;;;;;;;10.68;5.32;;;;;;;26.27;19.29;98742.97;5032905;28;20481;-83
2021/11/18 02:17:29;;;;;;;8.07;5.88;;;;;;;26.42;19.29;98741.47;5033011;28;20041;-83
2021/11/18 02:20:00;;;;;;;7.25;4.95;;;;;;;26.72;18.95;98739.16;5030271;28;20047;-83
2021/11/18 02:22:27;;;;;;;10.10;5.28;;;;;;;26.81;18.98;98738.63;5033094;28;20380;-83
2021/11/18 02:25:03;;;;;;;7.47;4.88;;;;;;;26.29;19.17;98734.88;5031440;28;20120;-83
2021/11/18 02:27:31;;;;;;;6.43;4.43;;;;;;;26.10;19.60;98753.34;5032938;28;20451;-83
2021/11/18 02:29:58;;;;;;;6.07;4.35;;;;;;;25.71;20.08;98764.50;5033386;28;20099;-83
2021/11/18 02:32:31;;;;;;;7.20;4.88;;;;;;;25.60;20.02;98758.28;5027970;28;20041;-83
2021/11/18 02:35:02;;;;;;;6.85;4.53;;;;;;;26.18;19.52;98756.81;5031904;28;20030;-83
2021/11/18 02:37:28;;;;;;;7.88;4.70;;;;;;;26.31;19.19;98764.19;5020342;28;20037;-83
2021/11/18 02:39:55;;;;;;;5.95;4.32;;;;;;;26.25;19.29;98760.31;5028681;28;20118;-84
2021/11/18 02:42:23;;;;;;;8.27;4.53;;;;;;;26.60;19.16;98753.94;5029121;28;20045;-84
2021/11/18 02:44:50;;;;;;;6.13;4.18;;;;;;;27.02;18.63;98754.22;5024559;28;20060;-83
2021/11/18 02:47:16;;;;;;;6.60;4.50;;;;;;;27.30;18.36;98757.19;5032397;28;20111;-83
2021/11/18 02:49:45;;;;;;;5.25;3.95;;;;;;;27.28;18.27;98762.44;5032242;28;20079;-84
2021/11/18 02:52:15;;;;;;;4.50;3.38;;;;;;;27.22;18.32;98777.50;5032104;28;20401;-84
2021/11/18 02:54:42;;;;;;;8.88;4.10;;;;;;;27.40;18.06;98772.25;5024746;28;20083;-83
2021/11/18 02:57:08;;;;;;;6.97;4.13;;;;;;;27.42;18.06;98770.59;5030671;28;20030;-83
2021/11/18 02:59:36;;;;;;;5.30;3.45;;;;;;;27.31;18.11;98770.03;5032819;28;20030;-83
2021/11/18 03:02:05;;;;;;;5.03;3.78;;;;;;;27.27;18.06;98771.34;5032699;28;20378;-83
2021/11/18 03:04:32;;;;;;;5.45;3.75;;;;;;;27.07;18.42;98782.69;5030021;28;20030;-83
2021/11/18 03:07:00;;;;;;;5.80;3.63;;;;;;;26.89;18.53;98787.94;5031124;28;20367;-84
2021/11/18 03:09:27;;;;;;;7.00;3.75;;;;;;;26.93;18.57;98782.22;5026935;28;20383;-83
2021/11/18 03:11:53;;;;;;;4.97;3.83;;;;;;;27.15;18.23;98786.94;5032276;28;20084;-83
2021/11/18 03:14:21;;;;;;;4.78;3.35;;;;;;;27.38;18.13;98786.81;5031753;28;20087;-83
2021/11/18 03:16:47;;;;;;;5.60;3.85;;;;;;;26.93;18.45;98785.03;5032546;28;20040;-83
2021/11/18 03:19:13;;;;;;;4.40;3.17;;;;;;;26.68;18.93;98782.72;5024957;28;20481;-84
2021/11/18 03:21:40;;;;;;;5.10;3.13;;;;;;;26.85;18.70;98784.41;5025685;28;20486;-83
2021/11/18 03:24:07;;;;;;;4.40;3.33;;;;;;;26.93;18.31;98785.03;5031675;28;20029;-83
2021/11/18 03:26:34;;;;;;;7.03;4.15;;;;;;;26.81;18.45;98786.50;5030238;28;20061;-83
2021/11/18 03:29:02;;;;;;;6.18;3.55;;;;;;;26.56;19.05;98781.34;5031713;28;20033;-83
2021/11/18 03:31:29;;;;;;;6.30;3.90;;;;;;;26.67;18.93;98796.03;5031817;28;20025;-83
2021/11/18 03:33:58;;;;;;;4.53;3.20;;;;;;;26.59;18.92;98793.78;5031035;28;20406;-84
2021/11/18 03:36:26;;;;;;;6.80;3.92;;;;;;;26.02;19.50;98802.53;5032015;28;20501;-83
2021/11/18 03:38:54;;;;;;;6.28;3.60;;;;;;;25.72;19.82;98805.50;5031804;28;20035;-83
2021/11/18 03:41:22;;;;;;;5.35;3.38;;;;;;;25.54;20.16;98802.97;5029432;28;20136;-84
2021/11/18 03:43:52;;;;;;;6.88;4.28;;;;;;;25.70;20.08;98803.09;5032250;28;20045;-83
2021/11/18 03:46:23;;;;;;;6.43;3.85;;;;;;;25.78;19.83;98806.56;5031597;28;20033;-83
2021/11/18 03:48:49;;;;;;;6.07;3.95;;;;;;;25.79;20.02;98808.19;5028413;28;20072;-83
2021/11/18 03:51:15;;;;;;;5.75;3.50;;;;;;;26.10;19.65;98809.63;5029624;28;20068;-83
2021/11/18 03:53:42;;;;;;;4.82;3.58;;;;;;;26.28;19.38;98810.09;5025565;28;20030;-83
2021/11/18 03:56:12;;;;;;;5.88;3.28;;;;;;;26.37;19.30;98807.50;5031260;28;20032;-83
2021/11/18 03:58:40;;;;;;;6.50;4.53;;;;;;;25.64;19.97;98818.06;5031814;28;20033;-83
2021/11/18 04:01:07;;;;;;;4.32;3.30;;;;;;;25.85;19.86;98812.09;5027463;28;20064;-83
2021/11/18 04:03:34;;;;;;;7.30;4.30;;;;;;;24.94;20.70;98814.28;5026116;28;20059;-83
2021/11/18 04:06:02;;;;;;;4.95;3.17;;;;;;;25.37;20.22;98818.06;5031532;28;20033;-83
2021/11/18 04:08:29;;;;;;;5.40;3.70;;;;;;;25.17;20.68;98820.78;5028036;28;20034;-83
2021/11/18 04:10:56;;;;;;;5.18;3.60;;;;;;;25.55;20.16;98820.63;5031230;28;20764;-83
2021/11/18 04:13:22;;;;;;;6.97;4.63;;;;;;;25.84;20.04;98818.91;5034028;28;20412;-83
2021/11/18 04:15:51;;;;;;;4.75;3.20;;;;;;;25.61;19.92;98813.28;5028722;28;20029;-83
2021/11/18 04:18:19;;;;;;;5.88;3.42;;;;;;;25.73;19.93;98815.50;5028832;28;20033;-83
2021/11/18 04:20:48;;;;;;;5.93;4.35;;;;;;;25.68;20.16;98813.97;5030728;28;20042;-83
2021/11/18 04:23:19;;;;;;;7.40;4.95;;;;;;;25.51;20.21;98812.25;5029820;28;20083;-83
2021/11/18 04:25:45;;;;;;;9.23;5.55;;;;;;;25.28;20.65;98817.78;5030750;28;20029;-83
2021/11/18 04:28:13;;;;;;;5.75;3.70;;;;;;;25.73;20.37;98812.69;5034762;28;20037;-83
2021/11/18 04:30:49;;;;;;;6.93;4.28;;;;;;;25.86;20.04;98808.81;5033041;28;20025;-83
2021/11/18 04:33:16;;;;;;;6.50;4.28;;;;;;;26.15;19.79;98808.34;5033752;28;20481;-83
2021/11/18 04:35:42;;;;;;;7.78;4.90;;;;;;;26.11;19.81;98818.88;5030736;28;20111;-83
2021/11/18 04:38:08;;;;;;;5.78;3.58;;;;;;;26.21;19.65;98815.84;5028921;28;20470;-83
2021/11/18 04:40:35;;;;;;;6.25;4.30;;;;;;;26.14;19.76;98815.22;5034605;28;20046;-83
2021/11/18 04:43:04;;;;;;;8.80;4.47;;;;;;;25.58;20.17;98825.41;5032586;28;20485;-84
2021/11/18 04:45:30;;;;;;;6.45;4.30;;;;;;;25.23;20.74;98830.31;5033501;28;20029;-83
2021/11/18 04:47:56;;;;;;;7.38;4.95;;;;;;;25.12;21.10;98823.25;5034295;28;20548;-83
2021/11/18 04:50:24;;;;;;;9.60;4.97;;;;;;;25.32;20.69;98822.13;5029312;28;20485;-83
2021/11/18 04:52:50;;;;;;;8.60;4.90;;;;;;;24.41;21.91;98824.13;5027981;28;20025;-83
2021/11/18 04:55:20;;;;;;;9.48;4.53;;;;;;;24.09;22.25;98822.88;5033449;28;20418;-83
2021/11/18 04:57:48;;;;;;;7.40;4.87;;;;;;;23.70;22.99;98840.06;5032016;28;20029;-83
2021/11/18 05:00:19;;;;;;;13.05;8.02;;;;;;;22.59;24.79;98841.88;5033993;28;20033;-83
2021/11/18 05:02:47;;;;;;;10.70;6.53;;;;;;;23.24;24.09;98837.56;5032092;28;20022;-84
2021/11/18 05:05:13;;;;;;;11.02;6.22;;;;;;;24.00;22.95;98838.19;5026106;28;20571;-84
2021/11/18 05:07:40;;;;;;;12.80;6.85;;;;;;;23.28;24.33;98841.16;5029976;28;20481;-83
2021/11/18 05:10:08;;;;;;;11.63;6.78;;;;;;;23.79;23.46;98840.38;5032750;28;20524;-84
2021/11/18 05:12:35;;;;;;;13.27;8.23;;;;;;;24.02;23.24;98843.38;5031125;28;20029;-84
2021/11/18 05:15:03;;;;;;;10.25;6.78;;;;;;;23.74;23.54;98835.22;5030153;28;20409;-83
2021/11/18 05:17:29;;;;;;;9.80;6.45;;;;;;;23.67;24.07;98844.47;5028319;28;20025;-84
2021/11/18 05:19:55;;;;;;;9.77;6.43;;;;;;;24.41;23.03;98852.22;5023720;28;20113;-84
2021/11/18 05:22:21;;;;;;;10.98;6.78;;;;;;;24.21;23.34;98844.81;5029259;28;20068;-83
2021/11/18 05:24:48;;;;;;;11.52;7.00;;;;;;;23.61;24.05;98854.56;5031129;28;20037;-83
2021/11/18 05:27:14;;;;;;;13.07;8.43;;;;;;;24.16;23.42;98851.69;5028764;28;20038;-84
2021/11/18 05:29:40;;;;;;;11.20;6.97;;;;;;;23.75;23.81;98859.25;5028403;28;20026;-84
2021/11/18 05:32:06;;;;;;;10.63;6.50;;;;;;;23.68;23.97;98865.72;5027701;28;20049;-84
2021/11/18 05:34:32;;;;;;;11.95;7.13;;;;;;;23.56;24.10;98871.00;5027051;28;20055;-83
2021/11/18 05:36:58;;;;;;;10.18;6.63;;;;;;;23.95;23.88;98872.28;5032316;28;20084;-83
2021/11/18 05:39:24;;;;;;;9.30;6.55;;;;;;;24.35;23.39;98870.72;5025482;28;20029;-83
2021/11/18 05:41:50;;;;;;;8.77;5.97;;;;;;;24.92;22.58;98864.50;5029200;28;20059;-83
2021/11/18 05:44:16;;;;;;;9.23;6.45;;;;;;;25.00;22.35;98878.00;5033040;28;20034;-83
2021/11/18 05:46:43;;;;;;;8.25;6.28;;;;;;;24.49;23.37;98872.59;5034728;28;20112;-84
2021/11/18 05:49:09;;;;;;;7.85;5.45;;;;;;;24.69;22.87;98865.91;5028450;28;20045;-84
2021/11/18 05:51:36;;;;;;;11.07;7.15;;;;;;;23.99;24.06;98880.69;5024341;28;20041;-84
2021/11/18 05:54:03;;;;;;;11.90;6.35;;;;;;;23.71;24.21;98881.69;5022160;28;20120;-84
2021/11/18 05:56:29;;;;;;;21.90;11.65;;;;;;;23.30;24.16;98884.38;5032627;28;20044;-85
2021/11/18 05:58:55;;;;;;;39.42;15.63;;;;;;;23.62;24.42;98894.59;5033645;28;20072;-85
2021/11/18 06:01:26;;;;;;;12.45;7.03;;;;;;;23.87;23.82;98898.00;5029837;28;20041;-85
2021/11/18 06:03:53;;;;;;;10.75;6.65;;;;;;;23.32;24.99;98897.94;5033187;28;20065;-84
2021/11/18 06:06:18;;;;;;;11.05;6.80;;;;;;;;;;5031959;28;20041;-85
2021/11/18 06:08:45;;;;;;;7.35;5.20;;;;;;;22.62;25.56;98913.88;5033244;28;20036;-84
2021/11/18 06:11:11;;;;;;;8.57;6.10;;;;;;;22.75;26.11;98911.44;5032826;28;20033;-84
2021/11/18 06:13:38;;;;;;;10.32;7.18;;;;;;;22.39;25.96;98910.69;5032976;28;20034;-84
2021/11/18 06:16:04;;;;;;;10.95;6.63;;;;;;;22.36;26.55;98919.09;5033749;28;20120;-83
2021/11/18 06:18:31;;;;;;;7.97;5.22;;;;;;;23.21;25.03;98914.84;5033222;28;20505;-84
2021/11/18 06:20:57;;;;;;;8.35;5.72;;;;;;;23.66;24.67;98924.22;5033053;28;20046;-84
2021/11/18 06:23:23;;;;;;;6.78;5.22;;;;;;;24.01;24.13;98926.72;5032309;28;20112;-84
2021/11/18 06:25:50;;;;;;;7.43;5.53;;;;;;;24.36;23.61;98933.28;5028072;28;20030;-89
2021/11/18 06:28:16;;;;;;;6.63;5.05;;;;;;;24.62;23.26;98930.59;5017083;28;20038;-88
2021/11/18 06:30:49;;;;;;;8.32;5.38;;;;;;;24.18;23.67;98929.84;5027094;28;20037;-89
2021/11/18 06:33:17;;;;;;;8.95;6.30;;;;;;;24.78;23.15;98930.06;5032549;28;20091;-89
2021/11/18 06:35:43;;;;;;;10.77;7.07;;;;;;;23.98;24.02;98930.38;5034403;28;20511;-86
2021/11/18 06:38:10;;;;;;;10.05;7.20;;;;;;;24.24;23.63;98931.00;5032942;28;20033;-87
2021/11/18 06:40:36;;;;;;;8.40;5.60;;;;;;;24.57;23.23;98930.25;5034237;28;20037;-87
2021/11/18 06:43:04;;;;;;;12.73;8.35;;;;;;;24.51;23.37;98926.31;5033893;28;20040;-87
2021/11/18 06:45:36;;;;;;;11.68;7.53;;;;;;;24.25;23.47;98930.56;5032616;28;20037;-86
2021/11/18 06:48:04;;;;;;;11.57;6.47;;;;;;;24.81;22.85;98934.81;5032087;28;20037;-86
2021/11/18 06:50:31;;;;;;;8.55;6.25;;;;;;;24.34;23.48;98928.06;5033336;28;20037;-87
2021/11/18 06:52:57;;;;;;;10.40;6.10;;;;;;;25.03;22.38;98924.94;5034078;28;20025;-86
2021/11/18 06:55:24;;;;;;;10.27;6.75;;;;;;;24.93;22.59;98927.88;5032938;28;20036;-87
2021/11/18 06:57:50;;;;;;;8.15;5.80;;;;;;;25.39;22.20;98936.53;5031546;28;20367;-86
2021/11/18 07:00:17;;;;;;;8.50;5.75;;;;;;;26.10;21.39;98933.47;5032554;28;20499;-86
2021/11/18 07:02:44;;;;;;;7.70;6.38;;;;;;;26.60;20.70;98936.22;5033475;28;20029;-87
2021/11/18 07:05:10;;;;;;;9.07;6.47;;;;;;;26.87;20.66;98941.75;5018407;28;20065;-87
2021/11/18 07:07:36;;;;;;;8.30;5.78;;;;;;;27.10;20.42;98934.03;5022011;28;20120;-87
2021/11/18 07:10:06;;;;;;;10.30;6.57;;;;;;;27.01;20.09;98939.47;5032386;28;20037;-87
2021/11/18 07:12:32;;;;;;;7.88;5.25;;;;;;;27.00;20.27;98934.28;5032929;28;20102;-87
2021/11/18 07:14:58;;;;;;;10.48;5.38;;;;;;;27.02;20.36;98937.44;5032702;28;20057;-87
2021/11/18 07:17:25;;;;;;;8.80;5.30;;;;;;;27.20;20.13;98933.03;5030586;28;20029;-87
2021/11/18 07:19:52;;;;;;;9.75;6.20;;;;;;;26.92;20.19;98924.34;5029360;28;20477;-87
2021/11/18 07:22:19;;;;;;;9.77;6.13;;;;;;;26.18;21.04;98932.16;5031874;28;20033;-87
2021/11/18 07:24:45;;;;;;;6.78;5.38;;;;;;;26.38;20.97;98938.63;5032576;28;20448;-87
2021/11/18 07:27:11;;;;;;;9.88;6.15;;;;;;;26.30;21.23;98939.97;5032858;28;20037;-89
2021/11/18 07:29:37;;;;;;;11.13;6.85;;;;;;;26.61;21.12;98947.06;5032218;28;20029;-89
2021/11/18 07:32:04;;;;;;;9.50;6.35;;;;;;;26.91;20.57;98936.88;5032608;28;20164;-88
2021/11/18 07:34:31;;;;;;;8.00;6.05;;;;;;;27.26;20.30;98934.09;5017240;28;20651;-89
2021/11/18 07:36:57;;;;;;;8.32;5.75;;;;;;;27.55;19.77;98942.78;5025293;28;20033;-89
2021/11/18 07:39:23;;;;;;;8.35;5.88;;;;;;;27.41;19.83;98934.63;5032528;28;20034;-89
2021/11/18 07:41:51;;;;;;;8.25;5.82;;;;;;;27.39;20.08;98935.06;5026749;28;20037;-89
2021/11/18 07:44:18;;;;;;;5.38;4.03;;;;;;;25.98;21.08;98946.09;5032889;28;20044;-89
2021/11/18 07:46:45;;;;;;;8.05;5.70;;;;;;;26.52;21.17;98944.00;5030924;28;20402;-89
2021/11/18 07:49:11;;;;;;;7.82;5.47;;;;;;;26.73;20.91;98946.44;5032893;28;20041;-89
2021/11/18 07:51:38;;;;;;;9.07;5.60;;;;;;;27.20;20.90;98940.69;5032741;28;20034;-89
2021/11/18 07:54:07;;;;;;;9.32;6.45;;;;;;;27.53;20.35;98942.41;5035743;28;20382;-89
2021/11/18 07:56:34;;;;;;;9.02;5.68;;;;;;;27.85;20.27;98941.69;5033999;28;20405;-89
2021/11/18 07:59:00;;;;;;;8.68;6.38;;;;;;;27.53;20.35;98935.97;5032455;28;20033;-89
2021/11/18 08:01:27;;;;;;;8.45;5.82;;;;;;;26.88;20.67;98937.72;5032522;28;20034;-89
2021/11/18 08:03:53;;;;;;;9.98;7.00;;;;;;;27.00;20.77;98935.03;5026953;28;20116;-89
2021/11/18 08:06:23;;;;;;;9.48;6.72;;;;;;;26.52;21.33;98944.00;5030214;28;20079;-89
2021/11/18 08:08:51;;;;;;;7.97;5.22;;;;;;;25.87;22.21;98942.66;5032010;28;20029;-89
2021/11/18 08:11:21;;;;;;;9.98;6.35;;;;;;;25.96;22.17;98945.75;5031429;28;20040;-89
2021/11/18 08:13:47;;;;;;;11.45;6.78;;;;;;;25.26;23.06;98953.16;5032670;28;20056;-89
2021/11/18 08:16:14;;;;;;;10.77;6.65;;;;;;;24.59;23.53;98947.50;5030744;28;20029;-89
2021/11/18 08:18:42;;;;;;;14.38;8.48;;;;;;;24.17;23.74;98954.31;5024475;28;20041;-89
2021/11/18 08:21:08;;;;;;;11.30;5.97;;;;;;;24.60;23.26;98944.25;5031600;28;20168;-89
2021/11/18 08:23:35;;;;;;;9.30;6.93;;;;;;;25.38;22.50;98949.78;5030537;28;20472;-89
2021/11/18 08:26:03;;;;;;;10.73;6.47;;;;;;;25.32;22.61;98951.44;5031768;28;20497;-89
2021/11/18 08:28:29;;;;;;;10.45;5.80;;;;;;;25.31;23.14;98944.25;5031236;28;20034;-89
2021/11/18 08:30:55;;;;;;;9.30;6.07;;;;;;;25.81;22.27;98952.78;5032864;28;20163;-89
2021/11/18 08:33:22;;;;;;;7.95;6.00;;;;;;;25.35;22.61;98955.44;5032386;28;20394;-89
2021/11/18 08:35:49;;;;;;;9.73;5.45;;;;;;;26.03;21.93;98956.88;5031291;28;20037;-89
2021/11/18 08:38:18;;;;;;;7.13;5.03;;;;;;;25.25;22.52;98962.78;5032226;28;20033;-89
2021/11/18 08:40:50;;;;;;;8.60;5.50;;;;;;;24.32;23.62;98966.22;5028491;28;20446;-89
2021/11/18 08:43:17;;;;;;;9.32;6.35;;;;;;;24.42;23.39;98970.91;5032450;28;20065;-89
2021/11/18 08:45:43;;;;;;;7.53;4.95;;;;;;;24.41;23.44;98963.72;5032575;28;20029;-89
2021/11/18 08:48:10;;;;;;;11.25;5.65;;;;;;;23.88;23.72;98969.72;5031441;28;20026;-89
2021/11/18 08:50:39;;;;;;;6.95;4.60;;;;;;;23.90;23.59;98962.47;5032556;28;20041;-89
2021/11/18 08:53:05;;;;;;;8.27;4.07;;;;;;;24.40;22.99;98967.72;5032707;28;20389;-89
2021/11/18 08:55:35;;;;;;;7.20;4.30;;;;;;;24.18;23.63;98975.53;5029944;28;20471;-89
2021/11/18 08:58:03;;;;;;;8.45;5.13;;;;;;;23.11;24.22;98971.72;5020384;28;20037;-90
2021/11/18 09:00:37;;;;;;;9.10;4.00;;;;;;;22.65;24.87;98983.06;5036510;28;20025;-89
2021/11/18 09:03:03;;;;;;;10.02;4.88;;;;;;;21.93;25.42;98982.66;5023536;28;20090;-88
2021/11/18 09:05:31;;;;;;;7.28;4.15;;;;;;;22.20;25.49;98983.84;5017539;28;20038;-89
2021/11/18 09:07:59;;;;;;;4.78;3.25;;;;;;;22.69;25.10;98986.63;5014983;28;20030;-88
2021/11/18 09:10:25;;;;;;;6.65;3.75;;;;;;;23.33;24.02;98990.03;5019991;28;20486;-89
2021/11/18 09:12:52;;;;;;;5.88;3.75;;;;;;;23.25;24.08;98982.84;5029110;28;20401;-89
2021/11/18 09:15:21;;;;;;;7.82;4.97;;;;;;;21.55;25.91;98997.31;5035012;28;20033;-88
2021/11/18 09:17:48;;;;;;;5.22;3.97;;;;;;;21.37;26.61;99000.06;5034670;28;20076;-88
2021/11/18 09:20:17;;;;;;;8.38;4.82;;;;;;;22.56;24.88;98996.63;5034123;28;20061;-89
2021/11/18 09:22:44;;;;;;;7.65;4.28;;;;;;;22.92;24.74;99005.78;5034962;28;20069;-89
2021/11/18 09:25:14;;;;;;;8.07;4.70;;;;;;;22.96;24.28;98978.56;5026632;28;20026;-89
2021/11/18 09:27:45;;;;;;;6.57;4.25;;;;;;;22.83;24.50;99001.78;5034793;28;20037;-88
2021/11/18 09:30:34;;;;;;;7.35;3.80;;;;;;;23.30;23.92;99004.06;5032873;28;20033;-89
2021/11/18 09:33:00;;;;;;;7.65;3.58;;;;;;;23.35;23.95;99003.66;5026736;28;20037;-88
2021/11/18 09:35:31;;;;;;;7.45;4.25;;;;;;;23.26;23.72;99006.88;5034554;28;20025;-89
2021/11/18 09:37:58;;;;;;;5.22;2.72;;;;;;;23.92;23.06;99004.16;5034518;28;20030;-88
2021/11/18 09:40:30;;;;;;;5.30;3.17;;;;;;;24.14;22.98;98999.22;5035175;28;20123;-89
2021/11/18 09:43:24;;;;;;;4.20;3.00;;;;;;;23.78;23.04;99010.63;5035168;28;20036;-89
2021/11/18 09:46:04;;;;;;;5.97;3.08;;;;;;;23.54;23.06;99000.38;5034325;28;20041;-89
2021/11/18 09:48:40;;;;;;;6.73;3.07;;;;;;;22.58;23.77;99007.41;5033948;28;20034;-89
2021/11/18 09:51:37;;;;;;;5.85;2.40;;;;;;;22.09;25.81;99008.22;5034468;28;20421;-88
2021/11/18 09:54:21;;;;;;;6.18;3.08;;;;;;;21.86;25.03;99005.00;5033903;28;20500;-88
2021/11/18 09:57:11;;;;;;;4.50;2.53;;;;;;;21.23;25.95;99002.78;5033937;28;20026;-88
2021/11/18 09:59:48;;;;;;;5.90;3.05;;;;;;;21.86;25.62;99003.00;5030605;28;20038;-88
2021/11/18 10:02:43;;;;;;;7.25;3.45;;;;;;;23.02;23.87;98981.75;5026304;28;20056;-88
2021/11/18 10:05:32;;;;;;;11.27;3.40;;;;;;;23.99;22.60;99004.13;5026925;28;20508;-89
2021/11/18 10:08:12;;;;;;;5.53;2.92;;;;;;;22.52;24.47;99001.41;5033776;28;20033;-88
2021/11/18 10:10:51;;;;;;;5.85;3.58;;;;;;;22.22;25.00;99006.63;5033309;28;20048;-89
2021/11/18 10:13:29;;;;;;;9.60;3.83;;;;;;;22.62;24.04;99011.03;5028876;28;20034;-88
2021/11/18 10:16:06;;;;;;;10.45;3.97;;;;;;;22.58;24.20;99008.22;5032932;28;20030;-88
2021/11/18 10:18:37;;;;;;;8.25;3.90;;;;;;;21.17;25.74;98993.16;5031773;28;20121;-88
2021/11/18 10:21:12;;;;;;;7.95;4.05;;;;;;;20.75;26.40;98993.72;5031800;28;20037;-88
2021/11/18 10:23:40;;;;;;;6.75;3.63;;;;;;;22.71;24.38;98980.63;5028705;28;20034;-88
2021/11/18 10:26:10;;;;;;;7.47;3.28;;;;;;;22.98;23.88;98981.78;5032925;28;20375;-88
2021/11/18 10:29:00;;;;;;;5.13;2.83;;;;;;;22.69;23.57;98972.63;5033733;28;20026;-89
2021/11/18 10:32:05;;;;;;;8.00;3.03;;;;;;;23.63;22.75;98978.28;5014619;28;20037;-88
2021/11/18 10:34:49;;;;;;;4.90;2.67;;;;;;;23.30;22.87;98987.25;5028564;28;20037;-88
2021/11/18 10:37:26;;;;;;;7.03;2.97;;;;;;;22.82;24.02;98986.22;5019182;28;20470;-88
2021/11/18 10:40:10;;;;;;;6.25;2.63;;;;;;;23.45;22.90;98985.22;5029833;28;20029;-88
2021/11/18 10:42:38;;;;;;;7.45;2.78;;;;;;;23.72;22.54;98983.44;5033347;28;20037;-88
2021/11/18 10:45:31;;;;;;;7.85;3.17;;;;;;;23.60;22.72;98981.09;5032274;28;20060;-88
2021/11/18 10:48:02;;;;;;;3.67;2.10;;;;;;;24.81;21.33;98979.00;5033069;28;20045;-88
2021/11/18 10:50:40;;;;;;;4.65;2.08;;;;;;;25.48;20.66;98983.84;5032031;28;20057;-88
2021/11/18 10:53:15;;;;;;;5.30;2.40;;;;;;;26.17;20.04;98978.41;5032981;28;20067;-89
2021/11/18 10:55:44;;;;;;;8.98;3.05;;;;;;;25.08;21.10;98979.88;5032448;28;20390;-88
2021/11/18 10:58:25;;;;;;;4.55;2.20;;;;;;;23.95;21.87;98978.88;5026511;28;20095;-88
2021/11/18 11:00:55;;;;;;;5.57;2.70;;;;;;;23.60;22.85;98976.31;5031050;28;20029;-89
2021/11/18 11:03:30;;;;;;;5.20;2.30;;;;;;;24.29;22.21;98970.63;5032769;28;20481;-89
2021/11/18 11:06:10;;;;;;;4.88;2.50;;;;;;;23.84;22.77;98974.56;5031622;28;20022;-89
2021/11/18 11:08:38;;;;;;;5.47;2.67;;;;;;;22.93;23.78;98979.38;5032401;28;20036;-89
2021/11/18 11:11:43;;;;;;;4.82;2.95;;;;;;;22.84;24.03;98967.81;5032718;28;20388;-88
2021/11/18 11:14:47;;;;;;;6.25;2.80;;;;;;;23.19;23.28;98970.50;5009523;28;20033;-88
2021/11/18 11:17:42;;;;;;;4.75;2.72;;;;;;;22.43;23.96;98970.25;5025018;28;20447;-89
2021/11/18 11:20:37;;;;;;;7.13;3.63;;;;;;;21.82;25.31;98965.81;5031845;28;20049;-89
2021/11/18 11:23:28;;;;;;;7.57;3.17;;;;;;;21.68;25.96;98965.00;5028672;28;20022;-89
2021/11/18 11:26:08;;;;;;;5.80;3.15;;;;;;;21.90;25.87;98958.28;5025310;28;20083;-89
2021/11/18 11:28:54;;;;;;;6.97;3.03;;;;;;;20.96;27.39;98943.59;5032896;28;20432;-88
2021/11/18 11:32:00;;;;;;;3.63;2.75;;;;;;;21.67;27.45;98963.41;5025446;28;20026;-88
2021/11/18 11:34:29;;;;;;;8.68;2.92;;;;;;;22.38;26.19;98953.09;5031104;28;20040;-88
2021/11/18 11:37:42;;;;;;;8.25;2.75;;;;;;;23.92;25.17;98959.28;5031866;28;20492;-89
2021/11/18 11:40:22;;;;;;;7.88;2.63;;;;;;;22.58;26.10;98952.25;5031744;28;20029;-89
2021/11/18 11:43:25;;;;;;;7.18;2.97;;;;;;;22.00;26.08;98963.06;5032403;28;20029;-88
2021/11/18 11:46:05;;;;;;;6.50;2.83;;;;;;;20.76;27.41;98942.31;5027020;28;20044;-89